sensor_id;sensor_type;location;lat;lon;timestamp;temperature;humidity
13682;DHT22;6913;49.892;7.936;2022-11-13T00:01:30;7.60;99.90
13682;DHT22;6913;49.892;7.936;2022-11-13T00:03:57;8.00;99.90
13682;DHT22;6913;49.892;7.936;2022-11-13T00:06:24;7.60;99.90
13682;DHT22;6913;49.892;7.936;2022-11-13T00:08:53;7.80;99.90
13682;DHT22;6913;49.892;7.936;2022-11-13T00:11:20;8.10;99.90
13682;DHT22;6913;49.892;7.936;2022-11-13T00:13:48;7.60;99.90
13682;DHT22;6913;49.892;7.936;2022-11-13T00:16:17;8.10;99.90
13682;DHT22;6913;49.892;7.936;2022-11-13T00:18:45;7.80;99.90
13682;DHT22;6913;49.892;7.936;2022-11-13T00:21:15;7.30;99.90
13682;DHT22;6913;49.892;7.936;2022-11-13T00:23:42;7.60;99.90
13682;DHT22;6913;49.892;7.936;2022-11-13T00:26:10;8.40;99.90
13682;DHT22;6913;49.892;7.936;2022-11-13T00:28:38;7.60;99.90
13682;DHT22;6913;49.892;7.936;2022-11-13T00:31:07;7.60;99.90
13682;DHT22;6913;49.892;7.936;2022-11-13T00:33:34;7.50;99.90
13682;DHT22;6913;49.892;7.936;2022-11-13T00:36:02;7.50;99.90
13682;DHT22;6913;49.892;7.936;2022-11-13T00:38:29;7.50;99.90
13682;DHT22;6913;49.892;7.936;2022-11-13T00:40:57;7.50;99.90
13682;DHT22;6913;49.892;7.936;2022-11-13T00:43:25;7.60;99.90
13682;DHT22;6913;49.892;7.936;2022-11-13T00:45:52;7.60;99.90
13682;DHT22;6913;49.892;7.936;2022-11-13T00:48:20;7.40;99.90
13682;DHT22;6913;49.892;7.936;2022-11-13T00:50:47;7.40;99.90
13682;DHT22;6913;49.892;7.936;2022-11-13T00:53:14;7.70;99.90
13682;DHT22;6913;49.892;7.936;2022-11-13T00:55:41;7.40;99.90
13682;DHT22;6913;49.892;7.936;2022-11-13T00:58:09;7.40;99.90
13682;DHT22;6913;49.892;7.936;2022-11-13T01:00:35;7.30;99.90
13682;DHT22;6913;49.892;7.936;2022-11-13T01:03:02;7.20;99.90
13682;DHT22;6913;49.892;7.936;2022-11-13T01:05:34;7.30;99.90
13682;DHT22;6913;49.892;7.936;2022-11-13T01:08:01;7.30;99.90
13682;DHT22;6913;49.892;7.936;2022-11-13T01:10:28;7.30;99.90
13682;DHT22;6913;49.892;7.936;2022-11-13T01:12:55;7.30;99.90
13682;DHT22;6913;49.892;7.936;2022-11-13T01:15:22;7.30;99.90
13682;DHT22;6913;49.892;7.936;2022-11-13T01:17:49;7.30;99.90
13682;DHT22;6913;49.892;7.936;2022-11-13T01:20:16;7.30;99.90
13682;DHT22;6913;49.892;7.936;2022-11-13T01:22:44;7.30;99.90
13682;DHT22;6913;49.892;7.936;2022-11-13T01:25:11;7.20;99.90
13682;DHT22;6913;49.892;7.936;2022-11-13T01:27:38;7.40;99.90
13682;DHT22;6913;49.892;7.936;2022-11-13T01:30:06;7.20;99.90
13682;DHT22;6913;49.892;7.936;2022-11-13T01:32:33;7.20;99.90
13682;DHT22;6913;49.892;7.936;2022-11-13T01:35:00;7.10;99.90
13682;DHT22;6913;49.892;7.936;2022-11-13T01:37:27;7.20;99.90
13682;DHT22;6913;49.892;7.936;2022-11-13T01:39:55;7.20;99.90
13682;DHT22;6913;49.892;7.936;2022-11-13T01:42:22;7.20;99.90
13682;DHT22;6913;49.892;7.936;2022-11-13T01:44:50;7.20;99.90
13682;DHT22;6913;49.892;7.936;2022-11-13T01:47:18;6.90;99.90
13682;DHT22;6913;49.892;7.936;2022-11-13T01:49:46;6.90;99.90
13682;DHT22;6913;49.892;7.936;2022-11-13T01:52:17;6.70;99.90
13682;DHT22;6913;49.892;7.936;2022-11-13T01:54:47;6.60;99.90
13682;DHT22;6913;49.892;7.936;2022-11-13T01:57:16;6.60;99.90
13682;DHT22;6913;49.892;7.936;2022-11-13T01:59:45;6.70;99.90
13682;DHT22;6913;49.892;7.936;2022-11-13T02:02:14;6.60;99.90
13682;DHT22;6913;49.892;7.936;2022-11-13T02:04:41;6.60;99.90
13682;DHT22;6913;49.892;7.936;2022-11-13T02:07:10;6.70;99.90
13682;DHT22;6913;49.892;7.936;2022-11-13T02:09:40;6.80;99.90
13682;DHT22;6913;49.892;7.936;2022-11-13T02:12:11;6.90;99.90
13682;DHT22;6913;49.892;7.936;2022-11-13T02:14:41;6.90;99.90
13682;DHT22;6913;49.892;7.936;2022-11-13T02:17:12;7.60;99.90
13682;DHT22;6913;49.892;7.936;2022-11-13T02:19:44;6.80;99.90
13682;DHT22;6913;49.892;7.936;2022-11-13T02:22:18;6.70;99.90
13682;DHT22;6913;49.892;7.936;2022-11-13T02:24:47;7.00;99.90
13682;DHT22;6913;49.892;7.936;2022-11-13T02:27:19;6.80;99.90
13682;DHT22;6913;49.892;7.936;2022-11-13T02:29:46;6.90;99.90
13682;DHT22;6913;49.892;7.936;2022-11-13T02:32:13;7.20;99.90
13682;DHT22;6913;49.892;7.936;2022-11-13T02:34:40;6.80;99.90
13682;DHT22;6913;49.892;7.936;2022-11-13T02:37:07;7.00;99.90
13682;DHT22;6913;49.892;7.936;2022-11-13T02:39:34;7.30;99.90
13682;DHT22;6913;49.892;7.936;2022-11-13T02:42:02;6.70;99.90
13682;DHT22;6913;49.892;7.936;2022-11-13T02:44:29;6.60;99.90
13682;DHT22;6913;49.892;7.936;2022-11-13T02:46:56;6.50;99.90
13682;DHT22;6913;49.892;7.936;2022-11-13T02:49:23;6.80;99.90
13682;DHT22;6913;49.892;7.936;2022-11-13T02:51:50;6.80;99.90
13682;DHT22;6913;49.892;7.936;2022-11-13T02:54:17;7.00;99.90
13682;DHT22;6913;49.892;7.936;2022-11-13T02:56:44;6.70;99.90
13682;DHT22;6913;49.892;7.936;2022-11-13T02:59:12;6.60;99.90
13682;DHT22;6913;49.892;7.936;2022-11-13T03:01:39;6.60;99.90
13682;DHT22;6913;49.892;7.936;2022-11-13T03:04:06;6.90;99.90
13682;DHT22;6913;49.892;7.936;2022-11-13T03:06:33;6.40;99.90
13682;DHT22;6913;49.892;7.936;2022-11-13T03:09:00;6.40;99.90
13682;DHT22;6913;49.892;7.936;2022-11-13T03:11:27;6.20;99.90
13682;DHT22;6913;49.892;7.936;2022-11-13T03:13:53;6.30;99.90
13682;DHT22;6913;49.892;7.936;2022-11-13T03:16:22;6.10;99.90
13682;DHT22;6913;49.892;7.936;2022-11-13T03:18:49;6.10;99.90
13682;DHT22;6913;49.892;7.936;2022-11-13T03:21:16;6.00;99.90
13682;DHT22;6913;49.892;7.936;2022-11-13T03:23:43;6.30;99.90
13682;DHT22;6913;49.892;7.936;2022-11-13T03:26:14;5.80;99.90
13682;DHT22;6913;49.892;7.936;2022-11-13T03:28:42;7.00;99.90
13682;DHT22;6913;49.892;7.936;2022-11-13T03:31:09;6.00;99.90
13682;DHT22;6913;49.892;7.936;2022-11-13T03:33:37;6.40;99.90
13682;DHT22;6913;49.892;7.936;2022-11-13T03:36:05;6.50;99.90
13682;DHT22;6913;49.892;7.936;2022-11-13T03:38:32;6.20;99.90
13682;DHT22;6913;49.892;7.936;2022-11-13T03:40:59;6.30;99.90
13682;DHT22;6913;49.892;7.936;2022-11-13T03:43:26;6.40;99.90
13682;DHT22;6913;49.892;7.936;2022-11-13T03:45:53;6.40;99.90
13682;DHT22;6913;49.892;7.936;2022-11-13T03:48:20;6.40;99.90
13682;DHT22;6913;49.892;7.936;2022-11-13T03:50:51;6.40;99.90
13682;DHT22;6913;49.892;7.936;2022-11-13T03:53:18;6.00;99.90
13682;DHT22;6913;49.892;7.936;2022-11-13T03:55:45;6.20;99.90
13682;DHT22;6913;49.892;7.936;2022-11-13T03:58:13;5.70;99.90
13682;DHT22;6913;49.892;7.936;2022-11-13T04:00:41;5.80;99.90
13682;DHT22;6913;49.892;7.936;2022-11-13T04:03:08;5.50;99.90
13682;DHT22;6913;49.892;7.936;2022-11-13T04:05:35;5.50;99.90
13682;DHT22;6913;49.892;7.936;2022-11-13T04:08:04;5.50;99.90
13682;DHT22;6913;49.892;7.936;2022-11-13T04:10:31;5.40;99.90
13682;DHT22;6913;49.892;7.936;2022-11-13T04:12:58;6.10;99.90
13682;DHT22;6913;49.892;7.936;2022-11-13T04:15:25;5.70;99.90
13682;DHT22;6913;49.892;7.936;2022-11-13T04:17:52;5.90;99.90
13682;DHT22;6913;49.892;7.936;2022-11-13T04:20:19;5.40;99.90
13682;DHT22;6913;49.892;7.936;2022-11-13T04:22:46;5.30;99.90
13682;DHT22;6913;49.892;7.936;2022-11-13T04:25:14;5.30;99.90
13682;DHT22;6913;49.892;7.936;2022-11-13T04:27:41;5.30;99.90
13682;DHT22;6913;49.892;7.936;2022-11-13T04:30:09;5.30;99.90
13682;DHT22;6913;49.892;7.936;2022-11-13T04:32:36;5.60;99.90
13682;DHT22;6913;49.892;7.936;2022-11-13T04:35:03;5.60;99.90
13682;DHT22;6913;49.892;7.936;2022-11-13T04:37:30;5.70;99.90
13682;DHT22;6913;49.892;7.936;2022-11-13T04:39:57;5.70;99.90
13682;DHT22;6913;49.892;7.936;2022-11-13T04:42:25;5.40;99.90
13682;DHT22;6913;49.892;7.936;2022-11-13T04:45:10;5.50;99.90
13682;DHT22;6913;49.892;7.936;2022-11-13T04:47:37;4.90;99.90
13682;DHT22;6913;49.892;7.936;2022-11-13T04:50:04;5.00;99.90
13682;DHT22;6913;49.892;7.936;2022-11-13T04:52:31;4.90;99.90
13682;DHT22;6913;49.892;7.936;2022-11-13T04:54:58;4.80;99.90
13682;DHT22;6913;49.892;7.936;2022-11-13T04:57:26;5.10;99.90
13682;DHT22;6913;49.892;7.936;2022-11-13T04:59:53;5.20;99.90
13682;DHT22;6913;49.892;7.936;2022-11-13T05:02:20;4.80;99.90
13682;DHT22;6913;49.892;7.936;2022-11-13T05:04:47;4.60;99.90
13682;DHT22;6913;49.892;7.936;2022-11-13T05:07:14;4.50;99.90
13682;DHT22;6913;49.892;7.936;2022-11-13T05:09:41;4.40;99.90
13682;DHT22;6913;49.892;7.936;2022-11-13T05:12:08;4.40;99.90
13682;DHT22;6913;49.892;7.936;2022-11-13T05:14:37;4.40;99.90
13682;DHT22;6913;49.892;7.936;2022-11-13T05:17:05;5.00;99.90
13682;DHT22;6913;49.892;7.936;2022-11-13T05:19:33;4.70;99.90
13682;DHT22;6913;49.892;7.936;2022-11-13T05:22:00;4.90;99.90
13682;DHT22;6913;49.892;7.936;2022-11-13T05:24:27;4.40;99.90
13682;DHT22;6913;49.892;7.936;2022-11-13T05:26:54;4.60;99.90
13682;DHT22;6913;49.892;7.936;2022-11-13T05:29:21;4.30;99.90
13682;DHT22;6913;49.892;7.936;2022-11-13T05:31:50;4.40;99.90
13682;DHT22;6913;49.892;7.936;2022-11-13T05:34:17;4.70;99.90
13682;DHT22;6913;49.892;7.936;2022-11-13T05:36:44;4.50;99.90
13682;DHT22;6913;49.892;7.936;2022-11-13T05:39:11;4.10;99.90
13682;DHT22;6913;49.892;7.936;2022-11-13T05:41:38;4.00;99.90
13682;DHT22;6913;49.892;7.936;2022-11-13T05:44:04;4.10;99.90
13682;DHT22;6913;49.892;7.936;2022-11-13T05:46:31;4.10;99.90
13682;DHT22;6913;49.892;7.936;2022-11-13T05:49:00;4.20;99.90
13682;DHT22;6913;49.892;7.936;2022-11-13T05:51:29;4.40;99.90
13682;DHT22;6913;49.892;7.936;2022-11-13T05:53:56;4.50;99.90
13682;DHT22;6913;49.892;7.936;2022-11-13T05:56:25;4.70;99.90
13682;DHT22;6913;49.892;7.936;2022-11-13T05:58:54;4.30;99.90
13682;DHT22;6913;49.892;7.936;2022-11-13T06:01:22;4.40;99.90
13682;DHT22;6913;49.892;7.936;2022-11-13T06:03:51;4.30;99.90
13682;DHT22;6913;49.892;7.936;2022-11-13T06:06:20;4.30;99.90
13682;DHT22;6913;49.892;7.936;2022-11-13T06:08:49;4.90;99.90
13682;DHT22;6913;49.892;7.936;2022-11-13T06:11:18;4.40;99.90
13682;DHT22;6913;49.892;7.936;2022-11-13T06:13:46;4.70;99.90
13682;DHT22;6913;49.892;7.936;2022-11-13T06:16:15;4.40;99.90
13682;DHT22;6913;49.892;7.936;2022-11-13T06:18:43;4.60;99.90
13682;DHT22;6913;49.892;7.936;2022-11-13T06:21:13;4.80;99.90
13682;DHT22;6913;49.892;7.936;2022-11-13T06:23:41;4.20;99.90
13682;DHT22;6913;49.892;7.936;2022-11-13T06:26:11;4.60;99.90
13682;DHT22;6913;49.892;7.936;2022-11-13T06:28:39;4.60;99.90
13682;DHT22;6913;49.892;7.936;2022-11-13T06:31:09;4.20;99.90
13682;DHT22;6913;49.892;7.936;2022-11-13T06:33:37;5.00;99.90
13682;DHT22;6913;49.892;7.936;2022-11-13T06:36:06;4.30;99.90
13682;DHT22;6913;49.892;7.936;2022-11-13T06:38:35;4.30;99.90
13682;DHT22;6913;49.892;7.936;2022-11-13T06:41:04;4.90;99.90
13682;DHT22;6913;49.892;7.936;2022-11-13T06:43:31;4.50;99.90
13682;DHT22;6913;49.892;7.936;2022-11-13T06:46:02;4.40;99.90
13682;DHT22;6913;49.892;7.936;2022-11-13T06:48:30;4.40;99.90
13682;DHT22;6913;49.892;7.936;2022-11-13T06:50:59;4.40;99.90
13682;DHT22;6913;49.892;7.936;2022-11-13T06:53:26;4.60;99.90
13682;DHT22;6913;49.892;7.936;2022-11-13T06:55:53;4.30;99.90
13682;DHT22;6913;49.892;7.936;2022-11-13T06:58:22;5.30;99.90
13682;DHT22;6913;49.892;7.936;2022-11-13T07:00:49;6.10;99.90
13682;DHT22;6913;49.892;7.936;2022-11-13T07:03:17;5.10;99.90
13682;DHT22;6913;49.892;7.936;2022-11-13T07:05:44;5.10;99.90
13682;DHT22;6913;49.892;7.936;2022-11-13T07:08:12;4.90;99.90
13682;DHT22;6913;49.892;7.936;2022-11-13T07:10:39;4.80;99.90
13682;DHT22;6913;49.892;7.936;2022-11-13T07:13:06;4.90;99.90
13682;DHT22;6913;49.892;7.936;2022-11-13T07:15:35;5.10;99.90
13682;DHT22;6913;49.892;7.936;2022-11-13T07:18:03;5.60;99.90
13682;DHT22;6913;49.892;7.936;2022-11-13T07:20:30;5.20;99.90
13682;DHT22;6913;49.892;7.936;2022-11-13T07:22:58;5.30;99.90
13682;DHT22;6913;49.892;7.936;2022-11-13T07:25:26;5.10;99.90
13682;DHT22;6913;49.892;7.936;2022-11-13T07:27:53;4.90;99.90
13682;DHT22;6913;49.892;7.936;2022-11-13T07:30:21;4.90;99.90
13682;DHT22;6913;49.892;7.936;2022-11-13T07:32:49;4.80;99.90
13682;DHT22;6913;49.892;7.936;2022-11-13T07:35:16;5.20;99.90
13682;DHT22;6913;49.892;7.936;2022-11-13T07:37:43;5.30;99.90
13682;DHT22;6913;49.892;7.936;2022-11-13T07:40:11;5.70;99.90
13682;DHT22;6913;49.892;7.936;2022-11-13T07:42:38;5.50;99.90
13682;DHT22;6913;49.892;7.936;2022-11-13T07:45:10;5.00;99.90
13682;DHT22;6913;49.892;7.936;2022-11-13T07:47:37;5.00;99.90
13682;DHT22;6913;49.892;7.936;2022-11-13T07:50:06;5.30;99.90
13682;DHT22;6913;49.892;7.936;2022-11-13T07:52:33;4.80;99.90
13682;DHT22;6913;49.892;7.936;2022-11-13T07:55:00;4.80;99.90
13682;DHT22;6913;49.892;7.936;2022-11-13T07:57:27;5.60;99.90
13682;DHT22;6913;49.892;7.936;2022-11-13T07:59:54;5.50;99.90
13682;DHT22;6913;49.892;7.936;2022-11-13T08:02:22;5.40;99.90
13682;DHT22;6913;49.892;7.936;2022-11-13T08:04:49;5.40;99.90
13682;DHT22;6913;49.892;7.936;2022-11-13T08:07:17;6.70;99.90
13682;DHT22;6913;49.892;7.936;2022-11-13T08:09:44;5.50;99.90
13682;DHT22;6913;49.892;7.936;2022-11-13T08:12:12;5.60;99.90
13682;DHT22;6913;49.892;7.936;2022-11-13T08:14:39;5.70;99.90
13682;DHT22;6913;49.892;7.936;2022-11-13T08:17:06;5.90;99.90
13682;DHT22;6913;49.892;7.936;2022-11-13T08:19:33;5.60;99.90
13682;DHT22;6913;49.892;7.936;2022-11-13T08:22:00;6.00;99.90
13682;DHT22;6913;49.892;7.936;2022-11-13T08:24:28;5.30;99.90
13682;DHT22;6913;49.892;7.936;2022-11-13T08:26:55;5.00;99.90
13682;DHT22;6913;49.892;7.936;2022-11-13T08:29:23;5.20;99.90
13682;DHT22;6913;49.892;7.936;2022-11-13T08:31:50;5.20;99.90
13682;DHT22;6913;49.892;7.936;2022-11-13T08:34:17;5.60;99.90
13682;DHT22;6913;49.892;7.936;2022-11-13T08:36:44;5.00;99.90
13682;DHT22;6913;49.892;7.936;2022-11-13T08:39:13;5.80;99.90
13682;DHT22;6913;49.892;7.936;2022-11-13T08:41:41;5.20;99.90
13682;DHT22;6913;49.892;7.936;2022-11-13T08:44:08;5.30;99.90
13682;DHT22;6913;49.892;7.936;2022-11-13T08:46:37;5.40;99.90
13682;DHT22;6913;49.892;7.936;2022-11-13T08:49:04;5.60;99.90
13682;DHT22;6913;49.892;7.936;2022-11-13T08:51:31;5.80;99.90
13682;DHT22;6913;49.892;7.936;2022-11-13T08:53:57;6.00;99.90
13682;DHT22;6913;49.892;7.936;2022-11-13T08:56:24;6.30;99.90
13682;DHT22;6913;49.892;7.936;2022-11-13T08:58:53;7.10;99.90
13682;DHT22;6913;49.892;7.936;2022-11-13T09:01:19;6.20;99.90
13682;DHT22;6913;49.892;7.936;2022-11-13T09:03:47;6.40;99.90
13682;DHT22;6913;49.892;7.936;2022-11-13T09:06:15;7.60;99.90
13682;DHT22;6913;49.892;7.936;2022-11-13T09:08:41;6.80;99.90
13682;DHT22;6913;49.892;7.936;2022-11-13T09:11:08;7.30;99.90
13682;DHT22;6913;49.892;7.936;2022-11-13T09:13:36;6.30;99.90
13682;DHT22;6913;49.892;7.936;2022-11-13T09:16:04;6.40;99.90
13682;DHT22;6913;49.892;7.936;2022-11-13T09:18:31;6.30;99.90
13682;DHT22;6913;49.892;7.936;2022-11-13T09:21:00;6.50;99.90
13682;DHT22;6913;49.892;7.936;2022-11-13T09:23:27;6.60;99.90
13682;DHT22;6913;49.892;7.936;2022-11-13T09:25:54;7.70;99.90
13682;DHT22;6913;49.892;7.936;2022-11-13T09:28:21;7.70;99.90
13682;DHT22;6913;49.892;7.936;2022-11-13T09:30:49;7.80;99.90
13682;DHT22;6913;49.892;7.936;2022-11-13T09:33:17;8.30;99.90
13682;DHT22;6913;49.892;7.936;2022-11-13T09:35:44;6.60;99.90
13682;DHT22;6913;49.892;7.936;2022-11-13T09:38:13;7.40;99.90
13682;DHT22;6913;49.892;7.936;2022-11-13T09:40:43;6.70;99.90
13682;DHT22;6913;49.892;7.936;2022-11-13T09:43:23;7.50;99.90
13682;DHT22;6913;49.892;7.936;2022-11-13T09:45:55;6.50;99.90
13682;DHT22;6913;49.892;7.936;2022-11-13T09:48:30;8.10;99.90
13682;DHT22;6913;49.892;7.936;2022-11-13T09:51:02;6.80;99.90
13682;DHT22;6913;49.892;7.936;2022-11-13T09:53:36;7.50;99.90
13682;DHT22;6913;49.892;7.936;2022-11-13T09:56:13;6.20;99.90
13682;DHT22;6913;49.892;7.936;2022-11-13T09:58:47;6.40;99.90
13682;DHT22;6913;49.892;7.936;2022-11-13T10:01:22;6.40;99.90
13682;DHT22;6913;49.892;7.936;2022-11-13T10:03:55;7.00;99.90
13682;DHT22;6913;49.892;7.936;2022-11-13T10:06:29;7.70;99.90
13682;DHT22;6913;49.892;7.936;2022-11-13T10:09:00;6.90;99.90
13682;DHT22;6913;49.892;7.936;2022-11-13T10:11:36;8.50;99.90
13682;DHT22;6913;49.892;7.936;2022-11-13T10:14:13;7.00;99.90
13682;DHT22;6913;49.892;7.936;2022-11-13T10:16:46;7.10;99.90
13682;DHT22;6913;49.892;7.936;2022-11-13T10:19:20;8.20;99.90
13682;DHT22;6913;49.892;7.936;2022-11-13T10:21:53;7.60;99.90
13682;DHT22;6913;49.892;7.936;2022-11-13T10:24:26;7.90;99.90
13682;DHT22;6913;49.892;7.936;2022-11-13T10:26:55;7.40;99.90
13682;DHT22;6913;49.892;7.936;2022-11-13T10:29:24;7.90;99.90
13682;DHT22;6913;49.892;7.936;2022-11-13T10:31:53;7.40;99.90
13682;DHT22;6913;49.892;7.936;2022-11-13T10:34:21;8.50;99.90
13682;DHT22;6913;49.892;7.936;2022-11-13T10:37:01;7.50;99.90
13682;DHT22;6913;49.892;7.936;2022-11-13T10:39:40;7.50;99.90
13682;DHT22;6913;49.892;7.936;2022-11-13T10:42:20;7.80;99.90
13682;DHT22;6913;49.892;7.936;2022-11-13T10:44:55;8.00;99.90
13682;DHT22;6913;49.892;7.936;2022-11-13T10:47:24;8.70;99.90
13682;DHT22;6913;49.892;7.936;2022-11-13T10:49:54;8.40;99.90
13682;DHT22;6913;49.892;7.936;2022-11-13T10:52:23;9.70;99.90
13682;DHT22;6913;49.892;7.936;2022-11-13T10:55:02;9.30;99.90
13682;DHT22;6913;49.892;7.936;2022-11-13T10:57:32;9.20;99.90
13682;DHT22;6913;49.892;7.936;2022-11-13T11:00:00;8.90;99.90
13682;DHT22;6913;49.892;7.936;2022-11-13T11:02:28;8.80;99.90
13682;DHT22;6913;49.892;7.936;2022-11-13T11:05:04;8.90;99.90
13682;DHT22;6913;49.892;7.936;2022-11-13T11:07:38;7.90;99.90
13682;DHT22;6913;49.892;7.936;2022-11-13T11:10:19;7.90;99.90
13682;DHT22;6913;49.892;7.936;2022-11-13T11:12:51;8.60;99.90
13682;DHT22;6913;49.892;7.936;2022-11-13T11:15:21;9.10;99.90
13682;DHT22;6913;49.892;7.936;2022-11-13T11:17:51;9.50;99.90
13682;DHT22;6913;49.892;7.936;2022-11-13T11:20:30;11.50;99.90
13682;DHT22;6913;49.892;7.936;2022-11-13T11:23:12;10.60;99.90
13682;DHT22;6913;49.892;7.936;2022-11-13T11:25:44;10.40;99.90
13682;DHT22;6913;49.892;7.936;2022-11-13T11:28:19;10.70;99.90
13682;DHT22;6913;49.892;7.936;2022-11-13T11:30:54;10.90;99.90
13682;DHT22;6913;49.892;7.936;2022-11-13T11:33:27;11.10;99.90
13682;DHT22;6913;49.892;7.936;2022-11-13T11:36:03;11.50;99.90
13682;DHT22;6913;49.892;7.936;2022-11-13T11:38:36;10.90;99.90
13682;DHT22;6913;49.892;7.936;2022-11-13T11:41:12;10.90;99.90
13682;DHT22;6913;49.892;7.936;2022-11-13T11:43:42;11.50;99.90
13682;DHT22;6913;49.892;7.936;2022-11-13T11:46:11;11.90;99.90
13682;DHT22;6913;49.892;7.936;2022-11-13T11:48:38;12.30;99.90
13682;DHT22;6913;49.892;7.936;2022-11-13T11:51:20;12.40;99.90
13682;DHT22;6913;49.892;7.936;2022-11-13T11:53:57;12.90;99.90
13682;DHT22;6913;49.892;7.936;2022-11-13T11:56:30;12.80;99.90
13682;DHT22;6913;49.892;7.936;2022-11-13T11:59:08;11.60;99.90
13682;DHT22;6913;49.892;7.936;2022-11-13T12:01:56;11.00;99.90
13682;DHT22;6913;49.892;7.936;2022-11-13T12:04:37;11.00;99.90
13682;DHT22;6913;49.892;7.936;2022-11-13T12:07:21;11.50;99.90
13682;DHT22;6913;49.892;7.936;2022-11-13T12:09:55;12.10;99.90
13682;DHT22;6913;49.892;7.936;2022-11-13T12:12:36;12.00;99.90
13682;DHT22;6913;49.892;7.936;2022-11-13T12:15:09;11.90;99.90
13682;DHT22;6913;49.892;7.936;2022-11-13T12:17:47;11.70;99.90
13682;DHT22;6913;49.892;7.936;2022-11-13T12:20:26;12.00;99.90
13682;DHT22;6913;49.892;7.936;2022-11-13T12:23:03;12.40;99.90
13682;DHT22;6913;49.892;7.936;2022-11-13T12:25:37;12.70;99.90
13682;DHT22;6913;49.892;7.936;2022-11-13T12:28:13;12.90;99.90
13682;DHT22;6913;49.892;7.936;2022-11-13T12:30:52;13.00;99.90
13682;DHT22;6913;49.892;7.936;2022-11-13T12:33:30;13.10;99.90
13682;DHT22;6913;49.892;7.936;2022-11-13T12:36:00;13.10;99.90
13682;DHT22;6913;49.892;7.936;2022-11-13T12:38:35;12.90;99.90
13682;DHT22;6913;49.892;7.936;2022-11-13T12:41:12;12.90;99.90
13682;DHT22;6913;49.892;7.936;2022-11-13T12:43:57;13.00;99.90
13682;DHT22;6913;49.892;7.936;2022-11-13T12:46:33;13.10;99.90
13682;DHT22;6913;49.892;7.936;2022-11-13T12:49:01;13.20;99.90
13682;DHT22;6913;49.892;7.936;2022-11-13T12:51:37;13.20;99.90
13682;DHT22;6913;49.892;7.936;2022-11-13T12:54:08;13.20;99.90
13682;DHT22;6913;49.892;7.936;2022-11-13T12:56:35;13.40;99.90
13682;DHT22;6913;49.892;7.936;2022-11-13T12:59:12;13.40;99.90
13682;DHT22;6913;49.892;7.936;2022-11-13T13:01:58;13.60;99.90
13682;DHT22;6913;49.892;7.936;2022-11-13T13:04:40;13.80;99.90
13682;DHT22;6913;49.892;7.936;2022-11-13T13:07:19;14.00;99.90
13682;DHT22;6913;49.892;7.936;2022-11-13T13:09:59;13.90;99.90
13682;DHT22;6913;49.892;7.936;2022-11-13T13:12:41;13.70;99.90
13682;DHT22;6913;49.892;7.936;2022-11-13T13:15:23;13.10;99.90
13682;DHT22;6913;49.892;7.936;2022-11-13T13:18:02;12.40;99.90
13682;DHT22;6913;49.892;7.936;2022-11-13T13:20:33;12.20;99.90
13682;DHT22;6913;49.892;7.936;2022-11-13T13:23:00;12.50;99.90
13682;DHT22;6913;49.892;7.936;2022-11-13T13:25:31;12.60;99.90
13682;DHT22;6913;49.892;7.936;2022-11-13T13:27:59;12.60;99.90
13682;DHT22;6913;49.892;7.936;2022-11-13T13:30:28;12.70;99.90
13682;DHT22;6913;49.892;7.936;2022-11-13T13:33:11;12.70;99.90
13682;DHT22;6913;49.892;7.936;2022-11-13T13:35:45;12.60;99.90
13682;DHT22;6913;49.892;7.936;2022-11-13T13:38:19;12.50;99.90
13682;DHT22;6913;49.892;7.936;2022-11-13T13:41:00;12.50;99.90
13682;DHT22;6913;49.892;7.936;2022-11-13T13:43:45;12.50;99.90
13682;DHT22;6913;49.892;7.936;2022-11-13T13:46:17;12.30;99.90
13682;DHT22;6913;49.892;7.936;2022-11-13T13:48:48;12.20;99.90
13682;DHT22;6913;49.892;7.936;2022-11-13T13:51:19;12.20;99.90
13682;DHT22;6913;49.892;7.936;2022-11-13T13:53:47;12.30;99.90
13682;DHT22;6913;49.892;7.936;2022-11-13T13:56:16;12.10;99.90
13682;DHT22;6913;49.892;7.936;2022-11-13T13:58:45;12.10;99.90
13682;DHT22;6913;49.892;7.936;2022-11-13T14:01:13;12.00;99.90
13682;DHT22;6913;49.892;7.936;2022-11-13T14:03:40;12.00;99.90
13682;DHT22;6913;49.892;7.936;2022-11-13T14:06:09;12.30;99.90
13682;DHT22;6913;49.892;7.936;2022-11-13T14:08:36;12.00;99.90
13682;DHT22;6913;49.892;7.936;2022-11-13T14:11:17;12.00;99.90
13682;DHT22;6913;49.892;7.936;2022-11-13T14:13:44;12.00;99.90
13682;DHT22;6913;49.892;7.936;2022-11-13T14:16:11;12.00;99.90
13682;DHT22;6913;49.892;7.936;2022-11-13T14:18:38;12.00;99.90
13682;DHT22;6913;49.892;7.936;2022-11-13T14:21:10;11.90;99.90
13682;DHT22;6913;49.892;7.936;2022-11-13T14:23:40;11.90;99.90
13682;DHT22;6913;49.892;7.936;2022-11-13T14:26:09;11.90;99.90
13682;DHT22;6913;49.892;7.936;2022-11-13T14:28:45;11.90;99.90
13682;DHT22;6913;49.892;7.936;2022-11-13T14:31:13;11.80;99.90
13682;DHT22;6913;49.892;7.936;2022-11-13T14:33:43;11.70;99.90
13682;DHT22;6913;49.892;7.936;2022-11-13T14:36:14;11.70;99.90
13682;DHT22;6913;49.892;7.936;2022-11-13T14:38:44;11.80;99.90
13682;DHT22;6913;49.892;7.936;2022-11-13T14:41:19;11.70;99.90
13682;DHT22;6913;49.892;7.936;2022-11-13T14:43:50;11.70;99.90
13682;DHT22;6913;49.892;7.936;2022-11-13T14:46:29;11.70;99.90
13682;DHT22;6913;49.892;7.936;2022-11-13T14:48:56;12.00;99.90
13682;DHT22;6913;49.892;7.936;2022-11-13T14:51:25;11.90;99.90
13682;DHT22;6913;49.892;7.936;2022-11-13T14:53:57;11.80;99.90
13682;DHT22;6913;49.892;7.936;2022-11-13T14:56:33;11.60;99.90
13682;DHT22;6913;49.892;7.936;2022-11-13T14:59:10;11.50;99.90
13682;DHT22;6913;49.892;7.936;2022-11-13T15:01:37;11.50;99.90
13682;DHT22;6913;49.892;7.936;2022-11-13T15:04:04;11.50;99.90
13682;DHT22;6913;49.892;7.936;2022-11-13T15:06:36;11.50;99.90
13682;DHT22;6913;49.892;7.936;2022-11-13T15:09:05;11.40;99.90
13682;DHT22;6913;49.892;7.936;2022-11-13T15:11:36;11.40;99.90
13682;DHT22;6913;49.892;7.936;2022-11-13T15:14:10;11.40;99.90
13682;DHT22;6913;49.892;7.936;2022-11-13T15:16:37;11.40;99.90
13682;DHT22;6913;49.892;7.936;2022-11-13T15:19:08;11.50;99.90
13682;DHT22;6913;49.892;7.936;2022-11-13T15:21:37;11.50;99.90
13682;DHT22;6913;49.892;7.936;2022-11-13T15:24:05;11.40;99.90
13682;DHT22;6913;49.892;7.936;2022-11-13T15:26:32;11.40;99.90
13682;DHT22;6913;49.892;7.936;2022-11-13T15:28:58;11.40;99.90
13682;DHT22;6913;49.892;7.936;2022-11-13T15:31:29;11.40;99.90
13682;DHT22;6913;49.892;7.936;2022-11-13T15:33:56;11.30;99.90
13682;DHT22;6913;49.892;7.936;2022-11-13T15:36:23;11.30;99.90
13682;DHT22;6913;49.892;7.936;2022-11-13T15:38:50;11.10;99.90
13682;DHT22;6913;49.892;7.936;2022-11-13T15:41:18;10.90;99.90
13682;DHT22;6913;49.892;7.936;2022-11-13T15:43:47;10.90;99.90
13682;DHT22;6913;49.892;7.936;2022-11-13T15:46:15;10.70;99.90
13682;DHT22;6913;49.892;7.936;2022-11-13T15:48:44;10.70;99.90
13682;DHT22;6913;49.892;7.936;2022-11-13T15:51:15;10.50;99.90
13682;DHT22;6913;49.892;7.936;2022-11-13T15:53:44;10.30;99.90
13682;DHT22;6913;49.892;7.936;2022-11-13T15:56:11;10.80;99.90
13682;DHT22;6913;49.892;7.936;2022-11-13T15:58:38;10.20;99.90
13682;DHT22;6913;49.892;7.936;2022-11-13T16:01:05;10.00;99.90
13682;DHT22;6913;49.892;7.936;2022-11-13T16:03:33;10.00;99.90
13682;DHT22;6913;49.892;7.936;2022-11-13T16:06:08;10.10;99.90
13682;DHT22;6913;49.892;7.936;2022-11-13T16:08:36;10.00;99.90
13682;DHT22;6913;49.892;7.936;2022-11-13T16:11:03;9.90;99.90
13682;DHT22;6913;49.892;7.936;2022-11-13T16:13:30;9.80;99.90